sensor_id;sensor_type;location;lat;lon;timestamp;pressure;altitude;pressure_sealevel;temperature;humidity
55066;BME280;40964;42.114;24.220;2023-07-02T00:01:08;97034.78;;;19.13;96.35
55066;BME280;40964;42.114;24.220;2023-07-02T00:03:33;97048.84;;;19.19;95.55
55066;BME280;40964;42.114;24.220;2023-07-02T00:05:59;97051.50;;;19.19;94.83
55066;BME280;40964;42.114;24.220;2023-07-02T00:08:24;97055.31;;;19.13;94.45
55066;BME280;40964;42.114;24.220;2023-07-02T00:10:49;97063.31;;;19.13;94.28
55066;BME280;40964;42.114;24.220;2023-07-02T00:13:15;97063.53;;;18.97;94.87
55066;BME280;40964;42.114;24.220;2023-07-02T00:15:41;97060.66;;;18.94;96.03
55066;BME280;40964;42.114;24.220;2023-07-02T00:18:06;97065.28;;;18.88;97.97
55066;BME280;40964;42.114;24.220;2023-07-02T00:20:32;97058.06;;;18.89;98.22
55066;BME280;40964;42.114;24.220;2023-07-02T00:23:05;97059.94;;;18.88;96.84
55066;BME280;40964;42.114;24.220;2023-07-02T00:25:34;97061.97;;;18.96;98.70
55066;BME280;40964;42.114;24.220;2023-07-02T00:27:59;97060.09;;;18.97;96.77
55066;BME280;40964;42.114;24.220;2023-07-02T00:30:24;97069.22;;;18.91;97.75
55066;BME280;40964;42.114;24.220;2023-07-02T00:32:50;97058.88;;;18.89;97.53
55066;BME280;40964;42.114;24.220;2023-07-02T00:35:15;97058.28;;;18.92;99.36
55066;BME280;40964;42.114;24.220;2023-07-02T00:37:41;97049.19;;;18.93;99.20
55066;BME280;40964;42.114;24.220;2023-07-02T00:40:07;97050.47;;;18.96;97.98
55066;BME280;40964;42.114;24.220;2023-07-02T00:42:32;97061.22;;;18.91;96.95
55066;BME280;40964;42.114;24.220;2023-07-02T00:44:58;97060.94;;;18.92;97.93
55066;BME280;40964;42.114;24.220;2023-07-02T00:47:32;97062.75;;;18.97;99.20
55066;BME280;40964;42.114;24.220;2023-07-02T00:49:59;97035.09;;;18.93;99.04
55066;BME280;40964;42.114;24.220;2023-07-02T00:52:25;97043.06;;;18.93;99.17
55066;BME280;40964;42.114;24.220;2023-07-02T00:54:51;97047.13;;;18.90;98.82
55066;BME280;40964;42.114;24.220;2023-07-02T00:57:17;97050.47;;;18.96;99.37
55066;BME280;40964;42.114;24.220;2023-07-02T00:59:42;97049.19;;;18.93;98.21
55066;BME280;40964;42.114;24.220;2023-07-02T01:02:07;97047.63;;;18.92;99.10
55066;BME280;40964;42.114;24.220;2023-07-02T01:04:33;97043.53;;;18.81;100.00
55066;BME280;40964;42.114;24.220;2023-07-02T01:06:59;97038.41;;;18.85;100.00
55066;BME280;40964;42.114;24.220;2023-07-02T01:09:24;97027.44;;;18.86;98.97
55066;BME280;40964;42.114;24.220;2023-07-02T01:12:00;97027.81;;;18.80;98.21
55066;BME280;40964;42.114;24.220;2023-07-02T01:14:37;97016.63;;;18.78;99.46
55066;BME280;40964;42.114;24.220;2023-07-02T01:17:05;97005.88;;;18.88;99.25
55066;BME280;40964;42.114;24.220;2023-07-02T01:19:49;97004.50;;;18.90;99.24
55066;BME280;40964;42.114;24.220;2023-07-02T01:22:22;97006.41;;;18.85;98.36
55066;BME280;40964;42.114;24.220;2023-07-02T01:24:48;97005.28;;;18.91;99.08
55066;BME280;40964;42.114;24.220;2023-07-02T01:27:15;97010.59;;;18.91;100.00
55066;BME280;40964;42.114;24.220;2023-07-02T01:29:41;96995.59;;;18.95;100.00
55066;BME280;40964;42.114;24.220;2023-07-02T01:32:07;97001.97;;;18.99;98.96
55066;BME280;40964;42.114;24.220;2023-07-02T01:34:34;96996.34;;;19.00;97.96
55066;BME280;40964;42.114;24.220;2023-07-02T01:37:00;97007.72;;;19.06;98.38
55066;BME280;40964;42.114;24.220;2023-07-02T01:39:25;97009.38;;;19.02;95.84
55066;BME280;40964;42.114;24.220;2023-07-02T01:41:52;97008.81;;;19.05;95.75
55066;BME280;40964;42.114;24.220;2023-07-02T01:44:18;97010.59;;;19.10;97.55
55066;BME280;40964;42.114;24.220;2023-07-02T01:46:45;97002.78;;;19.13;98.58
55066;BME280;40964;42.114;24.220;2023-07-02T01:49:15;97003.88;;;19.12;97.11
55066;BME280;40964;42.114;24.220;2023-07-02T01:51:40;97015.44;;;19.08;97.36
55066;BME280;40964;42.114;24.220;2023-07-02T01:54:09;97025.66;;;19.00;98.29
55066;BME280;40964;42.114;24.220;2023-07-02T01:56:34;97014.69;;;19.02;97.75
55066;BME280;40964;42.114;24.220;2023-07-02T01:59:00;97007.13;;;19.09;96.64
55066;BME280;40964;42.114;24.220;2023-07-02T02:01:25;97011.09;;;19.12;97.24
55066;BME280;40964;42.114;24.220;2023-07-02T02:03:51;97007.06;;;19.14;97.35
55066;BME280;40964;42.114;24.220;2023-07-02T02:06:16;97002.22;;;19.16;96.83
55066;BME280;40964;42.114;24.220;2023-07-02T02:08:42;97003.72;;;19.22;97.46
55066;BME280;40964;42.114;24.220;2023-07-02T02:11:07;97007.59;;;19.30;97.84
55066;BME280;40964;42.114;24.220;2023-07-02T02:13:32;97009.16;;;19.31;96.48
55066;BME280;40964;42.114;24.220;2023-07-02T02:15:58;97007.03;;;19.33;97.14
55066;BME280;40964;42.114;24.220;2023-07-02T02:18:23;97016.50;;;19.39;97.00
55066;BME280;40964;42.114;24.220;2023-07-02T02:20:49;97017.69;;;19.33;97.15
55066;BME280;40964;42.114;24.220;2023-07-02T02:23:14;97036.13;;;19.29;99.20
55066;BME280;40964;42.114;24.220;2023-07-02T02:25:40;97041.16;;;19.31;99.14
55066;BME280;40964;42.114;24.220;2023-07-02T02:28:05;97030.47;;;19.17;97.05
55066;BME280;40964;42.114;24.220;2023-07-02T02:30:30;97055.88;;;19.28;95.15
55066;BME280;40964;42.114;24.220;2023-07-02T02:32:56;97054.38;;;19.22;95.80
55066;BME280;40964;42.114;24.220;2023-07-02T02:35:21;97050.72;;;19.18;97.13
55066;BME280;40964;42.114;24.220;2023-07-02T02:37:47;97057.28;;;19.07;98.60
55066;BME280;40964;42.114;24.220;2023-07-02T02:40:13;97065.97;;;18.94;100.00
55066;BME280;40964;42.114;24.220;2023-07-02T02:42:39;97067.84;;;18.93;100.00
55066;BME280;40964;42.114;24.220;2023-07-02T02:45:05;97080.03;;;18.99;100.00
55066;BME280;40964;42.114;24.220;2023-07-02T02:47:30;97079.16;;;19.04;100.00
55066;BME280;40964;42.114;24.220;2023-07-02T02:49:56;97081.81;;;19.04;100.00
55066;BME280;40964;42.114;24.220;2023-07-02T02:52:21;97089.16;;;19.12;99.78
55066;BME280;40964;42.114;24.220;2023-07-02T02:54:47;97093.41;;;19.13;98.70
55066;BME280;40964;42.114;24.220;2023-07-02T02:57:12;97086.00;;;19.10;100.00
55066;BME280;40964;42.114;24.220;2023-07-02T02:59:38;97078.75;;;19.16;99.79
55066;BME280;40964;42.114;24.220;2023-07-02T03:02:04;97081.63;;;19.19;99.81
55066;BME280;40964;42.114;24.220;2023-07-02T03:04:30;97081.81;;;19.23;98.66
55066;BME280;40964;42.114;24.220;2023-07-02T03:06:55;97069.81;;;19.25;96.13
55066;BME280;40964;42.114;24.220;2023-07-02T03:09:21;97068.63;;;19.32;95.66
55066;BME280;40964;42.114;24.220;2023-07-02T03:11:47;97052.25;;;19.38;95.43
55066;BME280;40964;42.114;24.220;2023-07-02T03:14:13;97052.50;;;19.42;94.29
55066;BME280;40964;42.114;24.220;2023-07-02T03:16:41;97045.53;;;19.41;95.74
55066;BME280;40964;42.114;24.220;2023-07-02T03:19:06;97058.81;;;19.46;95.95
55066;BME280;40964;42.114;24.220;2023-07-02T03:21:31;97065.13;;;19.50;95.45
55066;BME280;40964;42.114;24.220;2023-07-02T03:23:57;97054.63;;;19.40;95.80
55066;BME280;40964;42.114;24.220;2023-07-02T03:26:23;97066.31;;;19.44;97.20
55066;BME280;40964;42.114;24.220;2023-07-02T03:28:49;97068.88;;;19.49;96.33
55066;BME280;40964;42.114;24.220;2023-07-02T03:31:14;97079.72;;;19.58;94.50
55066;BME280;40964;42.114;24.220;2023-07-02T03:33:40;97076.47;;;19.61;92.83
55066;BME280;40964;42.114;24.220;2023-07-02T03:36:05;97071.84;;;19.66;91.33
55066;BME280;40964;42.114;24.220;2023-07-02T03:38:32;97086.75;;;19.67;89.57
55066;BME280;40964;42.114;24.220;2023-07-02T03:40:57;97077.34;;;19.56;91.57
55066;BME280;40964;42.114;24.220;2023-07-02T03:43:22;97077.47;;;19.65;91.15
55066;BME280;40964;42.114;24.220;2023-07-02T03:45:51;97088.38;;;19.68;90.56
55066;BME280;40964;42.114;24.220;2023-07-02T03:48:17;97081.84;;;19.74;95.64
55066;BME280;40964;42.114;24.220;2023-07-02T03:50:42;97088.06;;;19.70;98.39
55066;BME280;40964;42.114;24.220;2023-07-02T03:53:07;97087.78;;;19.71;99.67
55066;BME280;40964;42.114;24.220;2023-07-02T03:55:33;97086.19;;;19.70;98.27
55066;BME280;40964;42.114;24.220;2023-07-02T03:57:59;97092.22;;;19.76;98.70
55066;BME280;40964;42.114;24.220;2023-07-02T04:00:24;97086.72;;;19.86;100.00
55066;BME280;40964;42.114;24.220;2023-07-02T04:02:50;97086.44;;;19.88;100.00
55066;BME280;40964;42.114;24.220;2023-07-02T04:05:15;97082.47;;;19.85;97.26
55066;BME280;40964;42.114;24.220;2023-07-02T04:07:41;97095.22;;;19.88;97.49
55066;BME280;40964;42.114;24.220;2023-07-02T04:10:07;97098.31;;;19.95;97.62
55066;BME280;40964;42.114;24.220;2023-07-02T04:12:33;97090.31;;;19.95;97.49
55066;BME280;40964;42.114;24.220;2023-07-02T04:14:58;97089.41;;;20.00;97.02
55066;BME280;40964;42.114;24.220;2023-07-02T04:17:23;97100.09;;;20.00;97.72
55066;BME280;40964;42.114;24.220;2023-07-02T04:19:49;97086.81;;;19.95;97.23
55066;BME280;40964;42.114;24.220;2023-07-02T04:22:14;97084.78;;;20.05;98.04
55066;BME280;40964;42.114;24.220;2023-07-02T04:24:40;97094.97;;;20.17;99.41
55066;BME280;40964;42.114;24.220;2023-07-02T04:27:05;97098.81;;;20.11;96.99
55066;BME280;40964;42.114;24.220;2023-07-02T04:29:31;97101.91;;;20.04;95.70
55066;BME280;40964;42.114;24.220;2023-07-02T04:31:56;97105.47;;;20.13;96.03
55066;BME280;40964;42.114;24.220;2023-07-02T04:34:21;97087.16;;;20.07;96.65
55066;BME280;40964;42.114;24.220;2023-07-02T04:36:47;97111.72;;;20.23;98.40
55066;BME280;40964;42.114;24.220;2023-07-02T04:39:12;97113.47;;;20.27;98.84
55066;BME280;40964;42.114;24.220;2023-07-02T04:41:38;97131.50;;;20.35;99.93
55066;BME280;40964;42.114;24.220;2023-07-02T04:44:04;97113.78;;;20.26;99.31
55066;BME280;40964;42.114;24.220;2023-07-02T04:46:29;97116.16;;;20.27;100.00
55066;BME280;40964;42.114;24.220;2023-07-02T04:48:54;97130.66;;;20.21;100.00
55066;BME280;40964;42.114;24.220;2023-07-02T04:51:21;97145.91;;;20.21;100.00
55066;BME280;40964;42.114;24.220;2023-07-02T04:53:46;97161.53;;;20.27;100.00
55066;BME280;40964;42.114;24.220;2023-07-02T04:56:12;97173.38;;;20.07;100.00
55066;BME280;40964;42.114;24.220;2023-07-02T04:58:37;97145.34;;;19.91;100.00
55066;BME280;40964;42.114;24.220;2023-07-02T05:01:03;97149.47;;;19.83;100.00
55066;BME280;40964;42.114;24.220;2023-07-02T05:03:28;97148.25;;;19.76;100.00
55066;BME280;40964;42.114;24.220;2023-07-02T05:05:54;97142.91;;;19.76;100.00
55066;BME280;40964;42.114;24.220;2023-07-02T05:08:19;97118.16;;;19.56;100.00
55066;BME280;40964;42.114;24.220;2023-07-02T05:10:45;97136.53;;;19.58;100.00
55066;BME280;40964;42.114;24.220;2023-07-02T05:13:10;97140.53;;;19.55;100.00
55066;BME280;40964;42.114;24.220;2023-07-02T05:15:35;97131.91;;;19.45;100.00
55066;BME280;40964;42.114;24.220;2023-07-02T05:18:01;97143.31;;;19.50;100.00
55066;BME280;40964;42.114;24.220;2023-07-02T05:20:26;97124.19;;;19.43;92.02
55066;BME280;40964;42.114;24.220;2023-07-02T05:22:52;97132.63;;;19.50;95.86
55066;BME280;40964;42.114;24.220;2023-07-02T05:25:17;97137.84;;;19.61;100.00
55066;BME280;40964;42.114;24.220;2023-07-02T05:27:43;97130.03;;;19.64;100.00
55066;BME280;40964;42.114;24.220;2023-07-02T05:30:08;97131.97;;;19.59;99.57
55066;BME280;40964;42.114;24.220;2023-07-02T05:32:34;97130.34;;;19.63;100.00
55066;BME280;40964;42.114;24.220;2023-07-02T05:35:00;97126.38;;;19.60;100.00
55066;BME280;40964;42.114;24.220;2023-07-02T05:37:25;97123.75;;;19.55;97.65
55066;BME280;40964;42.114;24.220;2023-07-02T05:39:51;97124.78;;;19.59;89.66
55066;BME280;40964;42.114;24.220;2023-07-02T05:42:16;97169.84;;;19.61;95.97
55066;BME280;40964;42.114;24.220;2023-07-02T05:44:42;97174.78;;;19.48;100.00
55066;BME280;40964;42.114;24.220;2023-07-02T05:47:07;97171.03;;;19.31;100.00
55066;BME280;40964;42.114;24.220;2023-07-02T05:49:32;97177.00;;;19.22;100.00
55066;BME280;40964;42.114;24.220;2023-07-02T05:51:58;97182.31;;;19.22;100.00
55066;BME280;40964;42.114;24.220;2023-07-02T05:54:23;97175.06;;;19.28;100.00
55066;BME280;40964;42.114;24.220;2023-07-02T05:56:49;97181.34;;;19.37;100.00
55066;BME280;40964;42.114;24.220;2023-07-02T05:59:14;97170.63;;;19.61;100.00
55066;BME280;40964;42.114;24.220;2023-07-02T06:01:43;97172.00;;;19.77;100.00
55066;BME280;40964;42.114;24.220;2023-07-02T06:04:09;97172.75;;;19.97;100.00
55066;BME280;40964;42.114;24.220;2023-07-02T06:06:34;97171.13;;;20.15;100.00
55066;BME280;40964;42.114;24.220;2023-07-02T06:09:00;97169.56;;;20.27;100.00
55066;BME280;40964;42.114;24.220;2023-07-02T06:11:25;97179.50;;;20.40;100.00
55066;BME280;40964;42.114;24.220;2023-07-02T06:13:50;97169.31;;;20.56;100.00
55066;BME280;40964;42.114;24.220;2023-07-02T06:16:16;97168.16;;;20.76;97.02
55066;BME280;40964;42.114;24.220;2023-07-02T06:18:41;97162.19;;;21.07;95.64
55066;BME280;40964;42.114;24.220;2023-07-02T06:21:07;97154.56;;;21.28;94.14
55066;BME280;40964;42.114;24.220;2023-07-02T06:23:42;97159.03;;;21.54;93.38
55066;BME280;40964;42.114;24.220;2023-07-02T06:26:08;97150.53;;;21.52;91.88
55066;BME280;40964;42.114;24.220;2023-07-02T06:28:34;97137.72;;;21.86;95.12
55066;BME280;40964;42.114;24.220;2023-07-02T06:30:59;97138.72;;;22.21;93.07
55066;BME280;40964;42.114;24.220;2023-07-02T06:33:25;97149.81;;;22.67;86.65
55066;BME280;40964;42.114;24.220;2023-07-02T06:35:50;97149.94;;;22.62;86.70
55066;BME280;40964;42.114;24.220;2023-07-02T06:38:16;97148.78;;;22.55;84.66
55066;BME280;40964;42.114;24.220;2023-07-02T06:40:41;97137.91;;;22.51;85.05
55066;BME280;40964;42.114;24.220;2023-07-02T06:43:07;97151.84;;;22.71;83.73
55066;BME280;40964;42.114;24.220;2023-07-02T06:45:32;97138.63;;;22.74;81.51
55066;BME280;40964;42.114;24.220;2023-07-02T06:47:57;97145.09;;;22.82;77.69
55066;BME280;40964;42.114;24.220;2023-07-02T06:50:23;97146.13;;;22.94;79.51
55066;BME280;40964;42.114;24.220;2023-07-02T06:52:49;97147.09;;;23.16;78.17
55066;BME280;40964;42.114;24.220;2023-07-02T06:55:14;97143.19;;;23.31;79.74
55066;BME280;40964;42.114;24.220;2023-07-02T06:57:43;97148.22;;;23.32;76.57
55066;BME280;40964;42.114;24.220;2023-07-02T07:00:13;97153.75;;;23.27;76.13
55066;BME280;40964;42.114;24.220;2023-07-02T07:02:38;97149.50;;;23.35;74.73
55066;BME280;40964;42.114;24.220;2023-07-02T07:05:04;97147.16;;;23.59;75.60
55066;BME280;40964;42.114;24.220;2023-07-02T07:07:29;97146.34;;;23.50;76.09
55066;BME280;40964;42.114;24.220;2023-07-02T07:09:55;97147.13;;;23.42;74.43
55066;BME280;40964;42.114;24.220;2023-07-02T07:12:20;97148.88;;;23.38;76.54
55066;BME280;40964;42.114;24.220;2023-07-02T07:14:46;97149.81;;;23.42;79.52
55066;BME280;40964;42.114;24.220;2023-07-02T07:17:11;97151.84;;;23.45;77.98
55066;BME280;40964;42.114;24.220;2023-07-02T07:19:37;97135.94;;;23.48;77.43
55066;BME280;40964;42.114;24.220;2023-07-02T07:22:03;97151.75;;;23.67;76.53
55066;BME280;40964;42.114;24.220;2023-07-02T07:24:28;97146.69;;;23.74;73.95
55066;BME280;40964;42.114;24.220;2023-07-02T07:26:54;97136.25;;;23.82;74.68
55066;BME280;40964;42.114;24.220;2023-07-02T07:29:19;97141.00;;;23.85;72.80
55066;BME280;40964;42.114;24.220;2023-07-02T07:31:44;97146.84;;;23.61;74.84
55066;BME280;40964;42.114;24.220;2023-07-02T07:34:11;97137.34;;;23.89;76.40
55066;BME280;40964;42.114;24.220;2023-07-02T07:36:37;97146.31;;;24.19;78.06
55066;BME280;40964;42.114;24.220;2023-07-02T07:39:02;97136.31;;;24.28;76.61
55066;BME280;40964;42.114;24.220;2023-07-02T07:41:28;97138.38;;;24.31;70.10
55066;BME280;40964;42.114;24.220;2023-07-02T07:43:53;97132.78;;;24.54;74.07
55066;BME280;40964;42.114;24.220;2023-07-02T07:46:18;97129.22;;;25.00;69.89
55066;BME280;40964;42.114;24.220;2023-07-02T07:48:44;97141.13;;;25.20;69.84
55066;BME280;40964;42.114;24.220;2023-07-02T07:51:10;97136.34;;;25.46;73.18
55066;BME280;40964;42.114;24.220;2023-07-02T07:53:38;97135.44;;;25.96;71.89
55066;BME280;40964;42.114;24.220;2023-07-02T07:56:05;97134.97;;;25.82;70.11
55066;BME280;40964;42.114;24.220;2023-07-02T07:58:30;97147.25;;;25.50;67.97
55066;BME280;40964;42.114;24.220;2023-07-02T08:00:57;97150.94;;;25.45;68.02
55066;BME280;40964;42.114;24.220;2023-07-02T08:03:22;97146.06;;;25.18;69.73
55066;BME280;40964;42.114;24.220;2023-07-02T08:05:48;97146.47;;;24.99;70.07
55066;BME280;40964;42.114;24.220;2023-07-02T08:08:14;97148.53;;;24.94;74.14
55066;BME280;40964;42.114;24.220;2023-07-02T08:10:39;97147.31;;;24.91;71.09
55066;BME280;40964;42.114;24.220;2023-07-02T08:13:05;97145.38;;;24.62;73.83
55066;BME280;40964;42.114;24.220;2023-07-02T08:15:30;97144.38;;;24.75;72.06
55066;BME280;40964;42.114;24.220;2023-07-02T08:17:55;97153.41;;;25.30;71.51
55066;BME280;40964;42.114;24.220;2023-07-02T08:20:23;97143.25;;;25.56;69.67
55066;BME280;40964;42.114;24.220;2023-07-02T08:22:52;97157.69;;;25.52;67.43
55066;BME280;40964;42.114;24.220;2023-07-02T08:25:18;97160.63;;;25.59;66.53
55066;BME280;40964;42.114;24.220;2023-07-02T08:27:46;97162.50;;;25.46;65.91
55066;BME280;40964;42.114;24.220;2023-07-02T08:30:12;97167.09;;;25.16;67.46
55066;BME280;40964;42.114;24.220;2023-07-02T08:32:37;97163.63;;;25.15;66.91
55066;BME280;40964;42.114;24.220;2023-07-02T08:35:03;97151.69;;;25.04;67.61
55066;BME280;40964;42.114;24.220;2023-07-02T08:37:29;97159.31;;;24.94;67.49
55066;BME280;40964;42.114;24.220;2023-07-02T08:39:54;97157.53;;;24.98;69.29
55066;BME280;40964;42.114;24.220;2023-07-02T08:42:20;97155.44;;;25.33;67.91
55066;BME280;40964;42.114;24.220;2023-07-02T08:44:46;97146.72;;;25.36;65.38
55066;BME280;40964;42.114;24.220;2023-07-02T08:47:15;97152.06;;;25.44;67.92
55066;BME280;40964;42.114;24.220;2023-07-02T08:49:41;97159.28;;;25.53;65.64
55066;BME280;40964;42.114;24.220;2023-07-02T08:52:07;97153.03;;;25.40;66.59
55066;BME280;40964;42.114;24.220;2023-07-02T08:54:33;97150.16;;;25.15;67.48
55066;BME280;40964;42.114;24.220;2023-07-02T08:56:58;97141.91;;;24.91;66.63
55066;BME280;40964;42.114;24.220;2023-07-02T08:59:26;97154.47;;;24.78;64.88
55066;BME280;40964;42.114;24.220;2023-07-02T09:01:53;97159.75;;;24.96;68.18
55066;BME280;40964;42.114;24.220;2023-07-02T09:04:27;97154.13;;;25.18;67.37
55066;BME280;40964;42.114;24.220;2023-07-02T09:07:23;97152.34;;;25.22;67.12
55066;BME280;40964;42.114;24.220;2023-07-02T09:09:49;97151.22;;;25.02;66.45
55066;BME280;40964;42.114;24.220;2023-07-02T09:12:26;97145.03;;;25.02;64.35
55066;BME280;40964;42.114;24.220;2023-07-02T09:14:56;97144.63;;;25.21;62.94
55066;BME280;40964;42.114;24.220;2023-07-02T09:17:27;97138.16;;;25.13;65.00
55066;BME280;40964;42.114;24.220;2023-07-02T09:19:54;97142.31;;;25.31;65.25
55066;BME280;40964;42.114;24.220;2023-07-02T09:22:19;97137.19;;;25.38;64.51
55066;BME280;40964;42.114;24.220;2023-07-02T09:24:55;97139.03;;;25.26;66.19
55066;BME280;40964;42.114;24.220;2023-07-02T09:27:42;97140.78;;;25.42;65.29
55066;BME280;40964;42.114;24.220;2023-07-02T09:30:12;97144.53;;;25.50;62.57
55066;BME280;40964;42.114;24.220;2023-07-02T09:32:39;97146.75;;;25.69;63.10
55066;BME280;40964;42.114;24.220;2023-07-02T09:35:05;97131.56;;;25.73;63.78
55066;BME280;40964;42.114;24.220;2023-07-02T09:37:31;97136.38;;;26.00;64.71
55066;BME280;40964;42.114;24.220;2023-07-02T09:39:57;97135.41;;;26.17;62.24
55066;BME280;40964;42.114;24.220;2023-07-02T09:42:25;97127.88;;;26.23;61.04
55066;BME280;40964;42.114;24.220;2023-07-02T09:44:58;97129.22;;;26.17;61.67
55066;BME280;40964;42.114;24.220;2023-07-02T09:47:25;97135.94;;;26.11;61.75
55066;BME280;40964;42.114;24.220;2023-07-02T09:50:00;97135.06;;;26.31;60.46
55066;BME280;40964;42.114;24.220;2023-07-02T09:52:27;97139.41;;;26.56;60.96
55066;BME280;40964;42.114;24.220;2023-07-02T09:54:53;97142.13;;;26.81;56.71
55066;BME280;40964;42.114;24.220;2023-07-02T09:57:18;97142.22;;;26.97;57.14
55066;BME280;40964;42.114;24.220;2023-07-02T09:59:44;97133.19;;;27.29;56.23
55066;BME280;40964;42.114;24.220;2023-07-02T10:02:10;97142.81;;;27.55;54.16
55066;BME280;40964;42.114;24.220;2023-07-02T10:04:44;97129.97;;;27.92;55.39
55066;BME280;40964;42.114;24.220;2023-07-02T10:07:11;97126.59;;;28.11;53.74
55066;BME280;40964;42.114;24.220;2023-07-02T10:09:40;97121.78;;;28.32;55.47
55066;BME280;40964;42.114;24.220;2023-07-02T10:12:22;97114.59;;;28.55;54.07
55066;BME280;40964;42.114;24.220;2023-07-02T10:14:49;97100.03;;;28.28;52.29
55066;BME280;40964;42.114;24.220;2023-07-02T10:19:53;97111.28;;;28.31;54.36
55066;BME280;40964;42.114;24.220;2023-07-02T10:22:19;97108.03;;;28.56;52.81
55066;BME280;40964;42.114;24.220;2023-07-02T10:24:52;97109.44;;;28.66;50.99
55066;BME280;40964;42.114;24.220;2023-07-02T10:27:18;97104.72;;;28.63;52.35
55066;BME280;40964;42.114;24.220;2023-07-02T10:29:49;97097.09;;;28.21;51.03
55066;BME280;40964;42.114;24.220;2023-07-02T10:32:26;97095.28;;;28.25;51.96
55066;BME280;40964;42.114;24.220;2023-07-02T10:34:52;97102.69;;;28.13;49.51
55066;BME280;40964;42.114;24.220;2023-07-02T10:37:17;97099.09;;;27.93;51.29
55066;BME280;40964;42.114;24.220;2023-07-02T10:39:43;97102.50;;;28.21;52.04
55066;BME280;40964;42.114;24.220;2023-07-02T10:42:09;97092.16;;;28.71;51.14
55066;BME280;40964;42.114;24.220;2023-07-02T10:44:47;97091.78;;;28.88;50.03
55066;BME280;40964;42.114;24.220;2023-07-02T10:47:13;97091.09;;;28.91;48.25
55066;BME280;40964;42.114;24.220;2023-07-02T10:49:38;97090.91;;;29.00;49.55
55066;BME280;40964;42.114;24.220;2023-07-02T10:52:04;97096.22;;;29.31;48.51
55066;BME280;40964;42.114;24.220;2023-07-02T10:54:43;97095.66;;;29.61;48.48
55066;BME280;40964;42.114;24.220;2023-07-02T10:57:10;97078.34;;;29.11;44.58
55066;BME280;40964;42.114;24.220;2023-07-02T10:59:37;97084.88;;;29.45;45.00
55066;BME280;40964;42.114;24.220;2023-07-02T11:02:02;97078.66;;;29.83;43.44
55066;BME280;40964;42.114;24.220;2023-07-02T11:04:32;97073.06;;;29.53;45.67
55066;BME280;40964;42.114;24.220;2023-07-02T11:06:57;97074.19;;;29.72;46.30
55066;BME280;40964;42.114;24.220;2023-07-02T11:09:23;97067.50;;;30.08;44.85
55066;BME280;40964;42.114;24.220;2023-07-02T11:11:56;97068.63;;;30.07;45.04
55066;BME280;40964;42.114;24.220;2023-07-02T11:14:34;97070.34;;;30.38;45.07
55066;BME280;40964;42.114;24.220;2023-07-02T11:17:04;97066.59;;;30.23;42.66
55066;BME280;40964;42.114;24.220;2023-07-02T11:19:34;97076.09;;;30.36;44.13
55066;BME280;40964;42.114;24.220;2023-07-02T11:22:00;97067.09;;;30.55;45.03
55066;BME280;40964;42.114;24.220;2023-07-02T11:24:35;97069.59;;;30.41;43.13
55066;BME280;40964;42.114;24.220;2023-07-02T11:27:04;97064.28;;;30.48;41.81
55066;BME280;40964;42.114;24.220;2023-07-02T11:29:34;97069.66;;;30.44;44.00
55066;BME280;40964;42.114;24.220;2023-07-02T11:32:09;97067.41;;;30.50;43.09
55066;BME280;40964;42.114;24.220;2023-07-02T11:34:36;97062.94;;;30.61;40.48
55066;BME280;40964;42.114;24.220;2023-07-02T11:37:02;97060.34;;;30.45;41.91
55066;BME280;40964;42.114;24.220;2023-07-02T11:39:28;97053.44;;;30.48;40.39
55066;BME280;40964;42.114;24.220;2023-07-02T11:41:54;97064.53;;;30.39;42.19
55066;BME280;40964;42.114;24.220;2023-07-02T11:44:19;97054.31;;;30.29;41.01
55066;BME280;40964;42.114;24.220;2023-07-02T11:46:45;97054.50;;;30.66;41.53
55066;BME280;40964;42.114;24.220;2023-07-02T11:49:12;97058.56;;;30.79;41.81
55066;BME280;40964;42.114;24.220;2023-07-02T11:51:38;97050.59;;;31.20;43.03
55066;BME280;40964;42.114;24.220;2023-07-02T11:54:05;97041.34;;;31.25;38.86
55066;BME280;40964;42.114;24.220;2023-07-02T11:56:30;97042.28;;;31.40;40.27
55066;BME280;40964;42.114;24.220;2023-07-02T11:58:56;97050.53;;;31.47;38.27
55066;BME280;40964;42.114;24.220;2023-07-02T12:01:21;97046.19;;;31.42;41.06
55066;BME280;40964;42.114;24.220;2023-07-02T12:03:47;97045.59;;;30.96;41.84
55066;BME280;40964;42.114;24.220;2023-07-02T12:06:12;97041.59;;;30.86;44.29
55066;BME280;40964;42.114;24.220;2023-07-02T12:08:38;97053.28;;;30.90;42.63
55066;BME280;40964;42.114;24.220;2023-07-02T12:11:03;97049.94;;;30.47;43.18
55066;BME280;40964;42.114;24.220;2023-07-02T12:13:29;97055.97;;;30.87;45.22
55066;BME280;40964;42.114;24.220;2023-07-02T12:15:54;97044.84;;;30.99;44.03
55066;BME280;40964;42.114;24.220;2023-07-02T12:18:19;97041.81;;;30.47;44.13
55066;BME280;40964;42.114;24.220;2023-07-02T12:20:45;97034.44;;;30.48;46.62
55066;BME280;40964;42.114;24.220;2023-07-02T12:23:10;97041.69;;;30.40;45.30
55066;BME280;40964;42.114;24.220;2023-07-02T12:25:37;97046.88;;;30.26;44.15
55066;BME280;40964;42.114;24.220;2023-07-02T12:28:03;97050.25;;;29.96;46.90
55066;BME280;40964;42.114;24.220;2023-07-02T12:30:29;97039.00;;;30.17;44.50
55066;BME280;40964;42.114;24.220;2023-07-02T12:32:55;97037.78;;;30.38;47.07
55066;BME280;40964;42.114;24.220;2023-07-02T12:35:20;97038.38;;;30.28;45.30
55066;BME280;40964;42.114;24.220;2023-07-02T12:37:47;97029.66;;;30.15;44.44
55066;BME280;40964;42.114;24.220;2023-07-02T12:40:13;97030.16;;;30.01;44.97
55066;BME280;40964;42.114;24.220;2023-07-02T12:42:44;97027.28;;;29.67;46.51
55066;BME280;40964;42.114;24.220;2023-07-02T12:45:12;97034.06;;;29.81;46.31
55066;BME280;40964;42.114;24.220;2023-07-02T12:47:39;97025.56;;;29.82;46.93